Time;durP1;ratioP1;P1;durP2;ratioP2;P2;SDS_P1;SDS_P2;PMS_P1;PMS_P2;Temp;Humidity;BMP_temperature;BMP_pressure;BME280_temperature;BME280_humidity;BME280_pressure;Samples;Min_cycle;Max_cycle;Signal;HPM_P1;HPM_P2
2024/02/25 00:02:26;;;;;;;3.13;1.70;;;7.10;99.90;;;;;;4969651;28;20301;-70
2024/02/25 00:04:54;;;;;;;1.27;1.20;;;7.10;99.90;;;;;;4969297;28;20774;-70
2024/02/25 00:07:21;;;;;;;1.40;1.30;;;7.20;99.90;;;;;;4969329;28;20225;-70
2024/02/25 00:09:48;;;;;;;0.90;0.90;;;7.20;99.90;;;;;;4969479;28;20217;-71
2024/02/25 00:12:15;;;;;;;1.53;1.30;;;7.20;99.90;;;;;;4969335;28;20286;-70
2024/02/25 00:14:42;;;;;;;1.47;1.37;;;7.20;99.90;;;;;;4981447;28;20214;-72
2024/02/25 00:17:08;;;;;;;1.70;1.30;;;7.30;99.90;;;;;;4978391;28;20301;-70
2024/02/25 00:19:35;;;;;;;1.67;1.27;;;7.30;99.90;;;;;;4974579;28;20733;-70
2024/02/25 00:22:04;;;;;;;1.10;1.10;;;7.30;99.90;;;;;;4981138;28;20741;-71
2024/02/25 00:24:31;;;;;;;1.10;1.10;;;7.30;99.90;;;;;;4981253;28;20328;-70
2024/02/25 00:26:58;;;;;;;1.00;1.00;;;7.30;99.90;;;;;;4988535;28;20292;-71
2024/02/25 00:29:24;;;;;;;1.00;1.00;;;7.20;99.90;;;;;;4988207;28;20695;-70
2024/02/25 00:31:51;;;;;;;1.43;1.33;;;7.20;99.90;;;;;;4986696;28;20620;-71
2024/02/25 00:34:18;;;;;;;1.37;1.27;;;7.20;99.90;;;;;;4975619;28;20221;-71
2024/02/25 00:36:46;;;;;;;1.73;1.40;;;7.10;99.90;;;;;;4988446;28;20206;-72
2024/02/25 00:39:16;;;;;;;3.03;1.63;;;7.10;99.90;;;;;;4988370;28;20210;-72
2024/02/25 00:41:42;;;;;;;1.60;1.50;;;7.00;99.90;;;;;;4988884;28;20217;-72
2024/02/25 00:44:09;;;;;;;2.03;1.60;;;7.00;99.90;;;;;;4988297;28;20233;-72
2024/02/25 00:46:36;;;;;;;1.60;1.50;;;6.90;99.90;;;;;;5005431;28;20209;-71
2024/02/25 00:49:03;;;;;;;1.40;1.40;;;6.90;99.90;;;;;;4997759;28;20301;-70
2024/02/25 00:51:30;;;;;;;1.43;1.33;;;6.90;99.90;;;;;;4987805;28;20257;-71
2024/02/25 00:53:57;;;;;;;2.03;1.63;;;6.90;99.90;;;;;;4987597;28;20815;-71
2024/02/25 00:56:25;;;;;;;1.50;1.40;;;6.90;99.90;;;;;;4988190;28;20287;-71
2024/02/25 00:58:52;;;;;;;2.10;1.53;;;6.90;99.90;;;;;;4988356;28;20208;-71
2024/02/25 01:01:19;;;;;;;1.70;1.60;;;6.80;99.90;;;;;;4987201;28;20747;-71
2024/02/25 01:03:46;;;;;;;1.60;1.50;;;6.80;99.90;;;;;;4987605;28;20237;-71
2024/02/25 01:06:13;;;;;;;1.90;1.67;;;6.80;99.90;;;;;;4988100;28;20213;-72
2024/02/25 01:08:41;;;;;;;1.40;1.30;;;6.80;99.90;;;;;;4988267;28;20206;-71
2024/02/25 01:11:08;;;;;;;1.20;1.10;;;6.80;99.90;;;;;;4987669;28;20568;-71
2024/02/25 01:13:36;;;;;;;1.30;1.30;;;6.80;99.90;;;;;;4988135;28;20240;-71
2024/02/25 01:16:03;;;;;;;1.70;1.60;;;6.70;99.90;;;;;;4987739;28;20272;-71
2024/02/25 01:18:31;;;;;;;1.60;1.50;;;6.80;99.90;;;;;;4985668;28;20198;-71
2024/02/25 01:20:58;;;;;;;1.60;1.50;;;6.80;99.90;;;;;;4987479;28;20221;-71
2024/02/25 01:23:25;;;;;;;1.50;1.40;;;6.80;99.90;;;;;;4987621;28;20324;-71
2024/02/25 01:25:52;;;;;;;1.33;1.33;;;6.70;99.90;;;;;;4987750;28;20240;-71
2024/02/25 01:28:19;;;;;;;4.00;1.53;;;6.70;99.90;;;;;;4987780;28;20305;-70
2024/02/25 01:30:47;;;;;;;1.57;1.33;;;6.70;99.90;;;;;;4987951;28;20210;-71
2024/02/25 01:33:14;;;;;;;1.37;1.33;;;6.70;99.90;;;;;;4987289;28;20207;-72
2024/02/25 01:35:41;;;;;;;1.47;1.37;;;6.70;99.90;;;;;;4987447;28;20705;-71
2024/02/25 01:38:08;;;;;;;1.33;1.30;;;6.70;99.90;;;;;;4987425;28;20313;-71
2024/02/25 01:40:36;;;;;;;1.30;1.20;;;6.70;99.90;;;;;;4982660;28;20202;-71
2024/02/25 01:43:10;;;;;;;1.70;1.60;;;6.70;99.90;;;;;;4967991;28;20207;-71
2024/02/25 01:45:37;;;;;;;1.60;1.37;;;6.70;99.90;;;;;;4967843;28;20249;-71
2024/02/25 01:48:08;;;;;;;1.67;1.57;;;6.80;99.90;;;;;;4969399;28;20337;-71
2024/02/25 01:50:36;;;;;;;1.53;1.50;;;6.70;99.90;;;;;;4987921;28;20209;-71
2024/02/25 01:53:03;;;;;;;1.53;1.43;;;6.70;99.90;;;;;;4986961;28;20296;-71
2024/02/25 01:55:32;;;;;;;1.73;1.63;;;6.70;99.90;;;;;;4987245;28;20744;-71
2024/02/25 01:58:00;;;;;;;1.80;1.70;;;6.70;99.90;;;;;;4980845;28;20604;-71
2024/02/25 02:00:29;;;;;;;2.53;1.63;;;6.70;99.90;;;;;;4987289;28;20210;-71
2024/02/25 02:02:56;;;;;;;1.53;1.43;;;6.70;99.90;;;;;;4986557;28;20254;-71
2024/02/25 02:05:24;;;;;;;1.60;1.50;;;6.70;99.90;;;;;;4987177;28;21055;-71
2024/02/25 02:07:51;;;;;;;1.40;1.30;;;6.60;99.90;;;;;;4999703;28;20232;-72
2024/02/25 02:10:18;;;;;;;1.70;1.60;;;6.60;99.90;;;;;;4987435;28;20210;-71
2024/02/25 02:12:46;;;;;;;1.60;1.50;;;6.60;99.90;;;;;;4988919;28;20264;-72
2024/02/25 02:15:14;;;;;;;1.10;1.10;;;6.50;99.90;;;;;;4990784;28;20234;-71
2024/02/25 02:17:43;;;;;;;1.20;1.20;;;6.50;99.90;;;;;;4990964;28;20642;-71
2024/02/25 02:20:15;;;;;;;1.57;1.47;;;6.50;99.90;;;;;;4991086;28;20214;-71
2024/02/25 02:22:44;;;;;;;1.40;1.40;;;6.50;99.90;;;;;;4990803;28;20260;-72
2024/02/25 02:25:11;;;;;;;1.83;1.50;;;6.50;99.90;;;;;;4990661;28;20252;-72
2024/02/25 02:27:38;;;;;;;1.53;1.43;;;6.50;99.90;;;;;;4990170;28;20298;-71
2024/02/25 02:30:07;;;;;;;2.07;1.50;;;6.50;99.90;;;;;;4990455;28;20210;-72
2024/02/25 02:32:34;;;;;;;1.40;1.30;;;6.40;99.90;;;;;;4990402;28;20703;-71
2024/02/25 02:35:02;;;;;;;1.87;1.50;;;6.40;99.90;;;;;;4990486;28;20518;-71
2024/02/25 02:37:29;;;;;;;1.60;1.50;;;6.40;99.90;;;;;;4975091;28;20241;-71
2024/02/25 02:39:58;;;;;;;1.63;1.50;;;6.40;99.90;;;;;;4971191;28;20652;-71
2024/02/25 02:42:25;;;;;;;1.80;1.70;;;6.30;99.90;;;;;;4970925;28;20269;-72
2024/02/25 02:44:52;;;;;;;1.97;1.87;;;6.30;99.90;;;;;;4978944;28;20348;-72
2024/02/25 02:47:20;;;;;;;1.60;1.50;;;6.30;99.90;;;;;;4976326;28;20698;-72
2024/02/25 02:49:48;;;;;;;1.63;1.53;;;6.30;99.90;;;;;;4986378;28;20673;-70
2024/02/25 02:52:15;;;;;;;1.83;1.73;;;6.30;99.90;;;;;;4990006;28;20257;-70
2024/02/25 02:54:41;;;;;;;1.60;1.50;;;6.30;99.90;;;;;;4990153;28;20249;-70
2024/02/25 02:57:10;;;;;;;2.23;1.60;;;6.30;99.90;;;;;;4990178;28;20629;-71
2024/02/25 02:59:37;;;;;;;2.07;1.60;;;6.30;99.90;;;;;;4973721;28;20744;-70
2024/02/25 03:02:04;;;;;;;1.93;1.83;;;6.30;99.90;;;;;;4989599;28;20426;-70
2024/02/25 03:04:31;;;;;;;1.83;1.70;;;6.30;99.90;;;;;;4989420;28;20238;-70
2024/02/25 03:06:58;;;;;;;1.73;1.63;;;6.30;99.90;;;;;;4989891;28;20293;-70
2024/02/25 03:09:25;;;;;;;2.00;1.90;;;6.30;99.90;;;;;;4990146;28;20245;-71
2024/02/25 03:11:52;;;;;;;1.60;1.50;;;6.30;99.90;;;;;;4990036;28;20202;-70
2024/02/25 03:14:20;;;;;;;2.17;1.47;;;6.30;99.90;;;;;;4986466;28;20203;-71
2024/02/25 03:16:47;;;;;;;1.90;1.80;;;6.30;99.90;;;;;;4970648;28;20590;-70
2024/02/25 03:19:14;;;;;;;1.60;1.50;;;6.30;99.90;;;;;;4981348;28;20218;-70
2024/02/25 03:21:42;;;;;;;1.80;1.70;;;6.30;99.90;;;;;;4989573;28;20207;-70
2024/02/25 03:24:10;;;;;;;1.90;1.80;;;6.20;99.90;;;;;;4988893;28;20214;-72
2024/02/25 03:26:37;;;;;;;1.97;1.87;;;6.20;99.90;;;;;;4989524;28;20723;-71
2024/02/25 03:29:05;;;;;;;1.80;1.70;;;6.20;99.90;;;;;;4989453;28;20313;-71
2024/02/25 03:31:34;;;;;;;2.40;2.20;;;6.20;99.90;;;;;;4989779;28;20210;-71
2024/02/25 03:34:01;;;;;;;3.17;2.17;;;6.20;99.90;;;;;;4989627;28;20217;-71
2024/02/25 03:36:28;;;;;;;2.33;2.13;;;6.20;99.90;;;;;;4981609;28;20579;-71
2024/02/25 03:38:55;;;;;;;2.17;2.07;;;6.20;99.90;;;;;;4970084;28;20645;-71
2024/02/25 03:41:22;;;;;;;1.90;1.80;;;6.20;99.90;;;;;;4970230;28;20317;-71
2024/02/25 03:43:49;;;;;;;2.00;1.90;;;6.20;99.90;;;;;;4969926;28;20745;-71
2024/02/25 03:46:16;;;;;;;1.93;1.83;;;6.20;99.90;;;;;;4969342;28;20611;-71
2024/02/25 03:48:44;;;;;;;2.10;2.00;;;6.10;99.90;;;;;;4976498;28;20787;-71
2024/02/25 03:51:11;;;;;;;1.97;1.80;;;6.10;99.90;;;;;;4989172;28;20238;-71
2024/02/25 03:53:38;;;;;;;1.90;1.80;;;6.10;99.90;;;;;;4989017;28;20290;-71
2024/02/25 03:56:05;;;;;;;2.20;2.10;;;6.10;99.90;;;;;;4988730;28;20222;-71
2024/02/25 03:58:32;;;;;;;2.20;2.10;;;6.10;99.90;;;;;;4988828;28;20634;-71
2024/02/25 04:00:58;;;;;;;2.10;2.00;;;6.00;99.90;;;;;;4987901;28;20206;-71
2024/02/25 04:03:25;;;;;;;2.40;2.20;;;6.00;99.90;;;;;;4976729;28;20226;-71
2024/02/25 04:05:54;;;;;;;2.03;1.93;;;5.90;99.90;;;;;;4979871;28;20320;-71
2024/02/25 04:08:21;;;;;;;2.90;1.90;;;6.00;99.90;;;;;;4991580;28;20302;-72
2024/02/25 04:10:48;;;;;;;2.20;2.00;;;6.00;99.90;;;;;;4969313;28;20677;-72
2024/02/25 04:13:15;;;;;;;2.10;2.00;;;6.00;99.90;;;;;;4969117;28;20217;-72
2024/02/25 04:15:42;;;;;;;2.40;2.30;;;6.00;99.90;;;;;;4969222;28;20238;-72
2024/02/25 04:18:09;;;;;;;2.50;2.30;;;5.90;99.90;;;;;;4971583;28;20217;-72
2024/02/25 04:20:36;;;;;;;2.37;2.17;;;5.90;99.90;;;;;;4988623;28;20293;-72
2024/02/25 04:23:04;;;;;;;2.67;2.20;;;5.90;99.90;;;;;;4987453;28;20214;-72
2024/02/25 04:25:31;;;;;;;2.10;2.00;;;5.90;99.90;;;;;;4983071;28;20313;-72
2024/02/25 04:27:59;;;;;;;2.30;2.20;;;5.90;99.90;;;;;;4969175;28;20218;-71
2024/02/25 04:30:28;;;;;;;2.60;2.23;;;5.90;99.90;;;;;;4971935;28;20306;-72
2024/02/25 04:32:55;;;;;;;2.10;2.00;;;5.90;99.90;;;;;;4988342;28;20768;-72
2024/02/25 04:35:23;;;;;;;2.43;2.23;;;5.90;99.90;;;;;;4988180;28;20297;-71
2024/02/25 04:37:50;;;;;;;2.63;2.43;;;5.80;99.90;;;;;;4988337;28;20213;-71
2024/02/25 04:40:18;;;;;;;2.40;2.30;;;5.80;99.90;;;;;;4988296;28;20288;-72
2024/02/25 04:42:45;;;;;;;2.63;2.20;;;5.80;99.90;;;;;;4988360;28;20320;-71
2024/02/25 04:45:12;;;;;;;2.30;2.10;;;5.70;99.90;;;;;;4987915;28;20328;-71
2024/02/25 04:47:39;;;;;;;2.40;2.17;;;5.70;99.90;;;;;;4988118;28;20237;-72
2024/02/25 04:50:07;;;;;;;2.40;2.30;;;5.70;99.90;;;;;;4987915;28;20301;-72
2024/02/25 04:52:33;;;;;;;2.27;2.17;;;5.70;99.90;;;;;;4988112;28;20276;-71
2024/02/25 04:55:00;;;;;;;2.30;2.20;;;5.60;99.90;;;;;;4985648;28;20214;-72
2024/02/25 04:57:28;;;;;;;2.70;2.50;;;5.60;99.90;;;;;;4987938;28;20237;-71
2024/02/25 04:59:55;;;;;;;2.30;2.20;;;5.50;99.90;;;;;;4987966;28;20313;-72
2024/02/25 05:02:23;;;;;;;2.83;2.63;;;5.50;99.90;;;;;;4987939;28;20698;-72
2024/02/25 05:04:50;;;;;;;2.60;2.40;;;5.50;99.90;;;;;;4987740;28;20657;-71
2024/02/25 05:07:17;;;;;;;2.33;2.13;;;5.50;99.90;;;;;;4987672;28;20281;-71
2024/02/25 05:09:45;;;;;;;2.87;2.50;;;5.50;99.90;;;;;;4986244;28;20325;-71
2024/02/25 05:12:14;;;;;;;2.33;2.13;;;5.50;99.90;;;;;;4987741;28;20309;-71
2024/02/25 05:14:42;;;;;;;2.60;2.40;;;5.50;99.90;;;;;;4987728;28;20590;-70
2024/02/25 05:17:09;;;;;;;2.20;2.10;;;5.50;99.90;;;;;;4987561;28;20213;-70
2024/02/25 05:19:36;;;;;;;2.60;2.40;;;5.50;99.90;;;;;;4987490;28;20214;-70
2024/02/25 05:22:02;;;;;;;2.53;2.33;;;5.50;99.90;;;;;;4987498;28;20297;-70
2024/02/25 05:24:29;;;;;;;2.43;2.27;;;5.40;99.90;;;;;;4987356;28;20232;-70
2024/02/25 05:26:57;;;;;;;2.40;2.30;;;5.40;99.90;;;;;;4987537;28;20232;-70
2024/02/25 05:29:24;;;;;;;2.30;2.20;;;5.40;99.90;;;;;;4987450;28;20221;-70
2024/02/25 05:31:52;;;;;;;2.40;2.30;;;5.40;99.90;;;;;;4971727;28;20294;-71
2024/02/25 05:34:19;;;;;;;2.10;1.90;;;5.40;99.90;;;;;;4967874;28;20230;-72
2024/02/25 05:36:46;;;;;;;2.60;2.40;;;5.40;99.90;;;;;;4968105;28;20233;-72
2024/02/25 05:39:13;;;;;;;2.90;2.70;;;5.40;99.90;;;;;;4967774;28;20775;-72
2024/02/25 05:41:41;;;;;;;2.70;2.50;;;5.40;99.90;;;;;;4968192;28;20207;-70
2024/02/25 05:44:08;;;;;;;2.77;2.57;;;5.40;99.90;;;;;;4983394;28;20642;-71
2024/02/25 05:46:35;;;;;;;2.80;2.60;;;5.40;99.90;;;;;;4987469;28;20248;-71
2024/02/25 05:49:03;;;;;;;2.77;2.57;;;5.40;99.90;;;;;;4981221;28;20242;-71
2024/02/25 05:51:30;;;;;;;3.07;2.80;;;5.40;99.90;;;;;;4977363;28;20210;-71
2024/02/25 05:53:57;;;;;;;3.20;3.00;;;5.30;99.90;;;;;;4991111;28;20206;-71
2024/02/25 05:56:24;;;;;;;2.90;2.70;;;5.30;99.90;;;;;;4990478;28;20683;-71
2024/02/25 05:58:50;;;;;;;3.13;2.93;;;5.30;99.90;;;;;;4984986;28;20292;-71
2024/02/25 06:01:18;;;;;;;3.53;2.90;;;5.30;99.90;;;;;;4990125;28;20242;-71
2024/02/25 06:03:45;;;;;;;3.20;2.80;;;5.30;99.90;;;;;;4991329;28;20256;-72
2024/02/25 06:06:14;;;;;;;3.23;3.03;;;5.30;99.90;;;;;;4990162;28;20329;-71
2024/02/25 06:08:41;;;;;;;2.93;2.70;;;5.30;99.90;;;;;;4990700;28;20294;-71
2024/02/25 06:11:07;;;;;;;2.97;2.77;;;5.30;99.90;;;;;;4990323;28;20636;-71
2024/02/25 06:13:35;;;;;;;2.90;2.67;;;5.20;99.90;;;;;;4990634;28;21053;-71
2024/02/25 06:16:02;;;;;;;2.90;2.70;;;5.20;99.90;;;;;;4990795;28;20301;-70
2024/02/25 06:18:29;;;;;;;3.63;3.33;;;5.20;99.90;;;;;;4990767;28;20213;-71
2024/02/25 06:20:56;;;;;;;3.07;2.87;;;5.20;99.90;;;;;;4990853;28;20309;-71
2024/02/25 06:23:24;;;;;;;3.00;2.70;;;5.20;99.90;;;;;;4990654;28;20213;-71
2024/02/25 06:25:56;;;;;;;2.97;2.70;;;5.10;99.90;;;;;;4981157;28;20313;-71
2024/02/25 06:28:23;;;;;;;2.90;2.70;;;5.10;99.90;;;;;;4984922;28;20198;-71
2024/02/25 06:30:49;;;;;;;3.07;2.57;;;5.10;99.90;;;;;;4990120;28;20593;-71
2024/02/25 06:33:16;;;;;;;3.20;2.90;;;5.10;99.90;;;;;;4990590;28;20293;-71
2024/02/25 06:35:43;;;;;;;3.23;2.93;;;5.10;99.90;;;;;;4990292;28;20224;-72
2024/02/25 06:38:10;;;;;;;3.27;3.07;;;5.10;99.90;;;;;;4990101;28;20672;-72
2024/02/25 06:40:39;;;;;;;3.10;2.87;;;5.10;99.90;;;;;;4988537;28;20849;-72
2024/02/25 06:43:08;;;;;;;3.37;3.07;;;5.10;99.90;;;;;;4989675;28;20297;-72
2024/02/25 06:45:35;;;;;;;2.60;2.40;;;5.10;99.90;;;;;;4990555;28;20233;-71
2024/02/25 06:48:02;;;;;;;2.90;2.70;;;5.10;99.90;;;;;;4988367;28;20332;-71
2024/02/25 06:50:29;;;;;;;2.60;2.40;;;5.10;99.90;;;;;;4983201;28;20205;-71
2024/02/25 06:52:56;;;;;;;2.80;2.60;;;5.10;99.90;;;;;;4986613;28;20221;-71
2024/02/25 06:55:23;;;;;;;3.10;2.87;;;5.10;99.90;;;;;;4984196;28;20246;-71
2024/02/25 06:57:51;;;;;;;2.83;2.63;;;5.10;99.90;;;;;;4990453;28;20293;-71
2024/02/25 07:00:18;;;;;;;3.70;2.40;;;5.10;99.90;;;;;;4989109;28;20306;-70
2024/02/25 07:02:45;;;;;;;2.90;2.70;;;5.10;99.90;;;;;;4990256;28;20212;-71
2024/02/25 07:05:12;;;;;;;2.93;2.53;;;5.10;99.90;;;;;;4990012;28;20289;-71
2024/02/25 07:07:39;;;;;;;2.53;2.30;;;5.10;99.90;;;;;;4989995;28;20321;-70
2024/02/25 07:10:12;;;;;;;2.47;2.37;;;5.10;99.90;;;;;;4990185;28;20233;-70
2024/02/25 07:12:39;;;;;;;3.03;2.57;;;5.10;99.90;;;;;;4975016;28;20309;-71
2024/02/25 07:15:08;;;;;;;3.60;2.50;;;5.10;99.90;;;;;;4970533;28;20214;-71
2024/02/25 07:17:35;;;;;;;2.90;2.50;;;5.10;99.90;;;;;;4970962;28;20293;-71
2024/02/25 07:20:02;;;;;;;2.90;2.70;;;5.10;99.90;;;;;;4987688;28;20218;-71
2024/02/25 07:22:29;;;;;;;2.50;2.40;;;5.10;99.90;;;;;;4989591;28;20206;-70
2024/02/25 07:24:56;;;;;;;2.67;2.47;;;5.10;99.90;;;;;;4989897;28;20248;-70
2024/02/25 07:27:23;;;;;;;2.63;2.20;;;5.20;99.90;;;;;;4989628;28;20320;-70
2024/02/25 07:29:50;;;;;;;2.33;2.13;;;5.20;99.90;;;;;;4995630;28;20198;-70
2024/02/25 07:32:18;;;;;;;2.27;2.13;;;5.20;99.90;;;;;;5009096;28;20296;-71
2024/02/25 07:34:45;;;;;;;2.43;2.00;;;5.20;99.90;;;;;;4984562;28;20213;-70
2024/02/25 07:37:12;;;;;;;2.47;2.27;;;5.20;99.90;;;;;;4969482;28;20237;-70
2024/02/25 07:39:39;;;;;;;2.77;2.27;;;5.30;99.90;;;;;;4969862;28;20269;-70
2024/02/25 07:42:06;;;;;;;2.60;2.40;;;5.30;99.90;;;;;;4969497;28;20326;-70
2024/02/25 07:44:33;;;;;;;2.53;2.43;;;5.30;99.90;;;;;;4969580;28;20257;-70
2024/02/25 07:47:00;;;;;;;2.53;2.43;;;5.30;99.90;;;;;;4984384;28;20269;-70
2024/02/25 07:49:28;;;;;;;2.73;2.53;;;5.40;99.90;;;;;;4989103;28;20295;-70
2024/02/25 07:51:55;;;;;;;2.33;2.13;;;5.40;99.90;;;;;;4988893;28;20294;-70
2024/02/25 07:54:22;;;;;;;2.60;2.40;;;5.40;99.90;;;;;;4989280;28;20373;-70
2024/02/25 07:56:49;;;;;;;2.27;2.17;;;5.50;99.90;;;;;;4989084;28;20388;-70
2024/02/25 07:59:16;;;;;;;2.30;2.20;;;5.50;99.90;;;;;;4988994;28;20447;-69
2024/02/25 08:01:42;;;;;;;2.70;2.50;;;5.50;99.90;;;;;;4989124;28;20860;-70
2024/02/25 08:04:09;;;;;;;2.80;2.60;;;5.50;99.90;;;;;;4988780;28;20297;-71
2024/02/25 08:06:38;;;;;;;2.80;2.60;;;5.60;99.90;;;;;;4988737;28;20321;-70
2024/02/25 08:09:06;;;;;;;3.00;2.80;;;5.60;99.90;;;;;;4970115;28;20233;-70
2024/02/25 08:11:33;;;;;;;2.80;2.60;;;5.70;99.90;;;;;;4968816;28;20215;-70
2024/02/25 08:14:00;;;;;;;2.53;2.43;;;5.70;99.90;;;;;;4969020;28;20685;-71
2024/02/25 08:16:31;;;;;;;2.70;2.50;;;5.70;99.90;;;;;;4969534;28;20211;-71
2024/02/25 08:18:57;;;;;;;2.73;2.53;;;5.70;99.90;;;;;;4978366;28;20281;-71
2024/02/25 08:21:24;;;;;;;2.70;2.50;;;5.70;99.90;;;;;;4981884;28;20293;-71
2024/02/25 08:23:53;;;;;;;2.13;2.03;;;5.70;99.90;;;;;;4969429;28;20289;-71
2024/02/25 08:26:20;;;;;;;2.77;2.57;;;5.80;99.90;;;;;;4976677;28;20940;-71
2024/02/25 08:28:46;;;;;;;2.37;2.17;;;5.80;99.90;;;;;;4969258;28;20210;-71
2024/02/25 08:31:13;;;;;;;2.40;2.20;;;5.80;99.90;;;;;;4969000;28;20302;-70
2024/02/25 08:33:40;;;;;;;2.20;2.10;;;5.90;99.90;;;;;;4982408;28;20292;-70
2024/02/25 08:36:07;;;;;;;2.50;2.30;;;5.90;99.90;;;;;;4968965;28;20231;-72
2024/02/25 08:38:35;;;;;;;2.33;2.23;;;5.90;99.90;;;;;;4983617;28;20198;-72
2024/02/25 08:41:03;;;;;;;2.63;2.50;;;6.00;99.90;;;;;;4979598;28;20210;-71
2024/02/25 08:43:30;;;;;;;2.60;2.40;;;6.10;99.90;;;;;;4974382;28;20333;-71
2024/02/25 08:45:57;;;;;;;2.50;2.30;;;6.20;99.90;;;;;;4978269;28;20650;-71
2024/02/25 08:48:24;;;;;;;2.30;2.10;;;6.30;99.90;;;;;;4978786;28;20248;-71
2024/02/25 08:50:51;;;;;;;2.13;2.03;;;6.40;99.90;;;;;;4977370;28;20207;-71
2024/02/25 08:53:19;;;;;;;2.40;2.10;;;6.50;99.90;;;;;;4977547;28;20324;-71
2024/02/25 08:55:46;;;;;;;2.37;2.17;;;6.70;99.90;;;;;;4986108;28;20210;-71
2024/02/25 08:58:14;;;;;;;2.17;2.07;;;6.90;99.90;;;;;;4986151;28;20833;-71
2024/02/25 09:00:44;;;;;;;2.40;2.20;;;7.00;99.90;;;;;;4975335;28;20284;-72
2024/02/25 09:03:11;;;;;;;2.20;2.10;;;7.10;99.90;;;;;;4987426;28;20742;-72
2024/02/25 09:05:39;;;;;;;2.60;2.40;;;7.30;99.90;;;;;;4976494;28;20206;-71
2024/02/25 09:08:06;;;;;;;2.63;2.43;;;7.40;99.90;;;;;;4980173;28;20319;-71
2024/02/25 09:10:36;;;;;;;3.13;2.60;;;7.50;99.90;;;;;;4976056;28;20373;-71
2024/02/25 09:13:04;;;;;;;2.30;2.20;;;7.60;99.90;;;;;;4977959;28;20257;-71
2024/02/25 09:15:32;;;;;;;2.20;2.10;;;7.80;99.90;;;;;;4976016;28;20565;-72
2024/02/25 09:18:03;;;;;;;2.50;2.30;;;7.80;99.90;;;;;;4979679;28;20201;-71
2024/02/25 09:20:33;;;;;;;2.53;2.37;;;7.90;99.90;;;;;;4976967;28;20194;-71
2024/02/25 09:23:02;;;;;;;2.47;2.30;;;8.00;99.90;;;;;;4975768;28;20281;-71
2024/02/25 09:25:33;;;;;;;2.40;2.30;;;8.00;99.90;;;;;;4976574;28;20199;-72
2024/02/25 09:28:00;;;;;;;2.50;2.37;;;7.90;99.90;;;;;;4978940;28;20218;-72
2024/02/25 09:30:27;;;;;;;2.40;2.30;;;8.00;99.90;;;;;;4982568;28;20289;-72
2024/02/25 09:32:56;;;;;;;2.30;2.20;;;8.20;99.90;;;;;;4973931;28;20285;-72
2024/02/25 09:35:23;;;;;;;2.23;2.10;;;8.30;99.90;;;;;;4971277;28;20278;-72
2024/02/25 09:37:49;;;;;;;2.93;2.73;;;8.30;99.90;;;;;;4995511;28;20248;-72
2024/02/25 09:40:17;;;;;;;2.70;2.50;;;8.40;99.90;;;;;;4985302;28;20225;-72
2024/02/25 09:42:46;;;;;;;2.23;2.03;;;8.50;99.90;;;;;;4976141;28;20221;-72
2024/02/25 09:45:19;;;;;;;2.17;2.07;;;8.50;99.90;;;;;;4972018;28;20263;-72
2024/02/25 09:47:47;;;;;;;2.30;2.10;;;8.60;99.90;;;;;;4965748;28;20285;-72
2024/02/25 09:50:19;;;;;;;1.90;1.80;;;8.80;99.90;;;;;;4976725;28;20210;-72
2024/02/25 09:52:47;;;;;;;4.30;2.03;;;8.90;99.90;;;;;;4976908;28;20948;-72
2024/02/25 09:55:14;;;;;;;1.80;1.70;;;8.90;99.90;;;;;;4976694;28;20205;-72
2024/02/25 09:57:41;;;;;;;1.63;1.53;;;9.10;99.90;;;;;;4980558;28;20209;-72
2024/02/25 10:00:10;;;;;;;2.17;1.67;;;9.20;99.90;;;;;;4983471;28;20260;-72
2024/02/25 10:02:37;;;;;;;1.80;1.70;;;9.30;99.90;;;;;;4978168;28;20207;-72
2024/02/25 10:05:06;;;;;;;2.20;2.00;;;9.40;99.90;;;;;;4965924;28;20211;-72
2024/02/25 10:07:34;;;;;;;1.70;1.60;;;9.50;99.90;;;;;;4980341;28;20736;-72
2024/02/25 10:10:02;;;;;;;1.43;1.43;;;9.60;99.90;;;;;;4985433;28;20301;-72
2024/02/25 10:12:29;;;;;;;3.13;1.80;;;9.60;99.90;;;;;;4985255;28;20673;-72
2024/02/25 10:14:56;;;;;;;2.07;1.97;;;9.60;99.90;;;;;;4985242;28;20645;-72
2024/02/25 10:17:23;;;;;;;1.70;1.60;;;9.70;99.90;;;;;;4985737;28;20297;-72
2024/02/25 10:19:56;;;;;;;1.83;1.73;;;9.80;99.90;;;;;;4985651;28;20214;-72
2024/02/25 10:22:25;;;;;;;1.77;1.67;;;9.90;99.90;;;;;;4982011;28;20721;-72
2024/02/25 10:25:03;;;;;;;1.90;1.80;;;10.00;99.90;;;;;;4976912;28;20206;-72
2024/02/25 10:27:31;;;;;;;1.63;1.53;;;10.10;99.90;;;;;;4984485;28;20715;-72
2024/02/25 10:29:59;;;;;;;1.67;1.57;;;10.20;99.90;;;;;;4983686;28;20203;-72
2024/02/25 10:32:27;;;;;;;1.90;1.80;;;10.30;99.90;;;;;;4984229;28;20215;-72
2024/02/25 10:34:55;;;;;;;1.30;1.30;;;10.40;99.90;;;;;;4989479;28;20240;-72
2024/02/25 10:37:24;;;;;;;1.70;1.60;;;10.40;99.90;;;;;;4989495;28;20210;-72
2024/02/25 10:39:54;;;;;;;1.50;1.43;;;10.50;99.90;;;;;;4984119;28;20219;-72
2024/02/25 10:42:26;;;;;;;1.60;1.50;;;10.60;99.90;;;;;;4971483;28;20217;-72
2024/02/25 10:44:57;;;;;;;1.53;1.43;;;10.70;99.90;;;;;;4971100;28;20259;-72
2024/02/25 10:47:25;;;;;;;1.30;1.20;;;10.70;99.90;;;;;;4970761;28;20517;-72
2024/02/25 10:49:52;;;;;;;1.30;1.20;;;10.80;99.90;;;;;;4987312;28;20209;-72
2024/02/25 10:52:21;;;;;;;1.40;1.30;;;11.00;99.90;;;;;;4990150;28;20209;-72
2024/02/25 10:54:49;;;;;;;1.47;1.37;;;11.00;99.90;;;;;;4982626;28;20206;-72
2024/02/25 10:57:19;;;;;;;1.20;1.10;;;11.10;99.90;;;;;;4970898;28;20309;-72
2024/02/25 10:59:47;;;;;;;1.13;1.03;;;11.20;99.90;;;;;;4970812;28;20238;-72
2024/02/25 11:02:16;;;;;;;1.00;1.00;;;11.20;99.90;;;;;;4970423;28;20233;-72
2024/02/25 11:04:45;;;;;;;1.33;1.23;;;11.30;99.90;;;;;;4970674;28;20314;-72
2024/02/25 11:07:12;;;;;;;1.57;1.47;;;11.50;99.90;;;;;;4970057;28;20227;-72
2024/02/25 11:09:39;;;;;;;1.13;1.03;;;11.40;99.90;;;;;;4970357;28;20309;-72
2024/02/25 11:12:21;;;;;;;1.63;1.07;;;11.50;99.90;;;;;;4970143;28;20776;-71
2024/02/25 11:14:49;;;;;;;1.27;1.13;;;11.70;99.90;;;;;;4970845;28;20685;-72
2024/02/25 11:17:18;;;;;;;1.00;1.00;;;11.70;99.90;;;;;;4970367;28;20203;-72
2024/02/25 11:19:57;;;;;;;1.07;1.00;;;11.90;99.90;;;;;;4970567;28;20222;-71
2024/02/25 11:22:39;;;;;;;1.70;1.33;;;11.90;99.90;;;;;;4970246;28;20310;-71
2024/02/25 11:25:06;;;;;;;2.47;1.67;;;12.10;99.90;;;;;;4986814;28;20748;-71
2024/02/25 11:27:59;;;;;;;0.90;0.90;;;12.20;99.90;;;;;;4989535;28;20241;-71
2024/02/25 11:30:35;;;;;;;1.00;1.00;;;12.30;99.90;;;;;;5002011;28;20271;-72
2024/02/25 11:33:03;;;;;;;1.10;1.10;;;12.30;99.90;;;;;;4989696;28;20228;-71
2024/02/25 11:35:31;;;;;;;2.20;1.10;;;12.40;99.90;;;;;;4989424;28;20216;-71
2024/02/25 11:38:02;;;;;;;1.13;1.03;;;12.40;99.90;;;;;;4988591;28;20214;-71
2024/02/25 11:40:31;;;;;;;0.97;0.97;;;12.40;99.90;;;;;;4985937;28;20210;-71
2024/02/25 11:42:59;;;;;;;1.00;1.00;;;12.50;99.90;;;;;;4988601;28;20210;-71
2024/02/25 11:45:26;;;;;;;1.70;0.90;;;12.60;99.90;;;;;;4988467;28;20238;-71
2024/02/25 11:47:53;;;;;;;0.70;0.70;;;12.60;99.90;;;;;;4988736;28;20361;-71
2024/02/25 11:50:21;;;;;;;0.90;0.90;;;12.60;99.90;;;;;;4988877;28;20768;-71
2024/02/25 11:53:01;;;;;;;1.13;0.80;;;12.70;99.90;;;;;;4988878;28;20330;-71
2024/02/25 11:55:27;;;;;;;0.87;0.80;;;12.70;99.90;;;;;;4988658;28;20202;-72
2024/02/25 11:57:55;;;;;;;0.60;0.60;;;12.80;99.90;;;;;;4988289;28;20293;-71
2024/02/25 12:00:23;;;;;;;1.07;1.00;;;13.00;99.90;;;;;;4981576;28;20298;-71
2024/02/25 12:02:50;;;;;;;1.20;1.10;;;12.90;99.90;;;;;;4979483;28;21014;-71
2024/02/25 12:05:19;;;;;;;1.27;0.57;;;12.90;99.90;;;;;;4988659;28;20217;-71
2024/02/25 12:07:56;;;;;;;1.80;0.80;;;13.00;99.90;;;;;;4984755;28;20317;-72
2024/02/25 12:10:24;;;;;;;1.10;0.97;;;13.10;99.90;;;;;;4971801;28;20646;-71
2024/02/25 12:12:51;;;;;;;0.40;0.40;;;13.10;99.90;;;;;;4968843;28;20211;-71
2024/02/25 12:15:18;;;;;;;0.57;0.43;;;13.10;99.90;;;;;;4969116;28;20406;-71
2024/02/25 12:17:47;;;;;;;0.57;0.57;;;13.10;99.90;;;;;;4969328;28;20218;-71
2024/02/25 12:20:17;;;;;;;0.60;0.60;;;13.10;99.90;;;;;;4988329;28;20587;-71
2024/02/25 12:22:44;;;;;;;0.60;0.60;;;13.10;99.90;;;;;;4988423;28;20214;-71
2024/02/25 12:25:16;;;;;;;1.07;0.80;;;13.20;99.90;;;;;;4990768;28;20305;-71
2024/02/25 12:27:43;;;;;;;0.60;0.60;;;13.30;99.90;;;;;;4997411;28;20214;-71
2024/02/25 12:30:12;;;;;;;1.50;0.70;;;13.30;99.90;;;;;;4986730;28;20233;-71
2024/02/25 12:32:39;;;;;;;0.50;0.50;;;13.30;99.90;;;;;;4988361;28;20218;-71
2024/02/25 12:35:09;;;;;;;3.50;0.60;;;13.40;99.90;;;;;;4988172;28;20214;-71
2024/02/25 12:37:36;;;;;;;0.80;0.80;;;13.40;99.90;;;;;;4984831;28;20211;-71
2024/02/25 12:40:08;;;;;;;0.80;0.80;;;13.40;99.90;;;;;;4976976;28;20225;-71
2024/02/25 12:42:40;;;;;;;1.00;0.60;;;13.50;99.90;;;;;;4977600;28;20203;-71
2024/02/25 12:45:08;;;;;;;0.60;0.60;;;13.50;99.90;;;;;;4977111;28;20241;-71
2024/02/25 12:47:35;;;;;;;0.40;0.40;;;13.50;99.90;;;;;;4978867;28;20232;-72
2024/02/25 12:50:02;;;;;;;0.83;0.60;;;13.50;99.90;;;;;;4982267;28;20218;-71
2024/02/25 12:52:30;;;;;;;0.80;0.60;;;13.50;99.90;;;;;;4978746;28;20573;-71
2024/02/25 12:54:57;;;;;;;0.60;0.60;;;13.70;99.90;;;;;;4979621;28;20298;-71
2024/02/25 12:57:24;;;;;;;0.57;0.57;;;13.70;99.90;;;;;;4978934;28;20214;-71
2024/02/25 12:59:51;;;;;;;0.60;0.60;;;13.80;99.90;;;;;;4979579;28;20293;-72